Rockdale, Texas
Current Conditions -  °F | °C
As of 12:35 PM on Saturday 25 Oct 2014 (Local Time) from KT35 Reporting Station
Clear Clear  
Wind Chill: 82°   Ceiling: Unl
Heat Index: 83°   Visibility: 10mi
Dew Point: 60°   Wind: 7mph
Humidity: 47%   Direction: 260°W
Pressure: 30.16"   Gusts: NA
Location:  30.66°N, 97°W
Report Text: KT35 251735Z AUTO 26006KT 10SM CLR 28/16 A3016 RMK AO2 T02790155
Loading
Personal Weather Stations






























Interactive Weather Map
Tropical Storm Tracking
New forecast layout! Learn more

10-Day Weather Forecast

Advertisements
Track Severe Weather on mobile